Aérodrome :
LOGIN :

S'inscrire | Disclaimer

   EN    FR    IT 

 










Légende :    VFR   VFR Marginal   IFR   IFR Intensif   IFR Très Intensif
Visi : 
Plafond : 
>= 8 km
>= 3000ft
5 à 8 km
1000 à 3000 ft
1500m à 5 km
500 à 1000 ft
800 à 1500m
200 à 500 ft
< 800m
< 200 ft
Symboles :   Orages  Brouillard  Fortes neiges  Fortes précipitations  Vent > 20 kt
SIGMETs :   Divers  Orages  Givrage  Turbulence  Onde Orograph.  Cendres Volcan.






- Altitude de l'aérodrome : 408 ft
- Code IATA : FKB


EDSB - Karlsruhe Baden Baden

DERNIER METAR :
  • 281620Z 01009KT CAVOK 17/03 Q1016

METARs EXPIRÉS :
  • 281550Z 01010KT CAVOK 17/04 Q1016
  • 281520Z 02010KT CAVOK 18/04 Q1016
  • 281450Z 36010KT 320V030 CAVOK 17/04 Q1016
  • 281420Z 36011KT 330V040 CAVOK 17/04 Q1016
  • 281350Z 02010KT 350V060 CAVOK 17/04 Q1016

TAF TAF EDSB
Valide du 28 à 12h jusqu'au 29 à 12h UTC


281100Z 2812/2912 02009KT CAVOK
PROB30
TEMPO 2905/2908 BKN014
BECMG 2906/2908 02014KT
PROB30
TEMPO 2910/2912 02015G25KT



MET'MAP, la Météo Aéronautique d'un coup d'oeil ! - Copyright ORBIFLY Décembre 2007 - Disclaimer

ORBIFLY MET'MAP TEAM :

Programmation & Développement : Alexandra Zaïnal
Sur une idée originale de : Baudouin d'Aumeries
Assistance à la programmation : Marc-Olivier Méhu
Soutien technique & logistique : Manuel Goepfert

Contact : metmap@orbifly.com




SOURCES & CREDITS :

   NOAA